Time,TemperatureF,DewpointF,PressureIn,WindDirection,WindDirectionDegrees,WindSpeedMPH,WindSpeedGustMPH,Humidity,HourlyPrecipIn,Conditions,Clouds,dailyrainin,SoftwareType,DateUTC
2013-07-13 00:08:00,67.4,64.0,30.15,ENE,63,0.0,-999.0,88,-99.99,,,0.00,weatherlink.com 1.10,2013-07-13 04:08:00,
2013-07-13 00:23:00,67.3,64.0,30.15,NE,54,0.0,-999.0,89,-99.99,,,0.00,weatherlink.com 1.10,2013-07-13 04:23:00,
2013-07-13 00:38:00,67.1,64.0,30.15,NE,54,0.0,-999.0,89,-99.99,,,0.00,weatherlink.com 1.10,2013-07-13 04:38:00,
2013-07-13 00:53:00,66.9,64.0,30.15,NE,54,0.0,-999.0,90,-99.99,,,0.00,weatherlink.com 1.10,2013-07-13 04:53:00,
2013-07-13 01:08:00,66.7,64.0,30.16,NE,54,0.0,-999.0,90,-99.99,,,0.00,weatherlink.com 1.10,2013-07-13 05:08:00,
2013-07-13 01:23:00,66.6,64.0,30.15,NE,54,0.0,-999.0,91,-99.99,,,0.00,weatherlink.com 1.10,2013-07-13 05:23:00,
2013-07-13 01:38:00,66.6,64.0,30.15,NE,54,0.0,-999.0,92,-99.99,,,0.00,weatherlink.com 1.10,2013-07-13 05:38:00,
2013-07-13 01:53:00,66.6,64.0,30.15,NE,54,0.0,-999.0,92,-99.99,,,0.00,weatherlink.com 1.10,2013-07-13 05:53:00,
2013-07-13 02:08:00,66.6,64.0,30.15,NE,54,0.0,-999.0,92,-99.99,,,0.00,weatherlink.com 1.10,2013-07-13 06:08:00,
2013-07-13 02:23:00,66.8,65.0,30.16,NE,54,0.0,-999.0,92,-99.99,,,0.00,weatherlink.com 1.10,2013-07-13 06:23:00,
2013-07-13 02:38:00,66.8,65.0,30.16,NE,54,0.0,-999.0,92,-99.99,,,0.00,weatherlink.com 1.10,2013-07-13 06:38:00,
2013-07-13 02:53:00,66.9,65.0,30.16,NE,51,0.0,-999.0,92,-99.99,,,0.00,weatherlink.com 1.10,2013-07-13 06:53:00,
2013-07-13 03:08:00,67.0,65.0,30.16,NE,51,1.0,-999.0,93,-99.99,,,0.00,weatherlink.com 1.10,2013-07-13 07:08:00,
2013-07-13 03:23:00,67.1,65.0,30.17,NE,51,0.0,-999.0,92,-99.99,,,0.00,weatherlink.com 1.10,2013-07-13 07:23:00,
2013-07-13 03:38:00,66.9,65.0,30.17,NE,51,0.0,-999.0,92,-99.99,,,0.00,weatherlink.com 1.10,2013-07-13 07:38:00,
2013-07-13 03:53:00,66.8,65.0,30.18,NE,51,0.0,-999.0,92,-99.99,,,0.00,weatherlink.com 1.10,2013-07-13 07:53:00,
2013-07-13 04:08:00,66.8,64.0,30.18,NE,51,0.0,-999.0,91,-99.99,,,0.00,weatherlink.com 1.10,2013-07-13 08:08:00,
2013-07-13 04:23:00,66.8,64.0,30.18,NE,51,0.0,-999.0,91,-99.99,,,0.00,weatherlink.com 1.10,2013-07-13 08:23:00,
2013-07-13 04:38:00,66.7,64.0,30.18,NE,51,0.0,-999.0,91,-99.99,,,0.00,weatherlink.com 1.10,2013-07-13 08:38:00,
2013-07-13 04:53:00,66.7,64.0,30.18,NE,51,0.0,-999.0,90,-99.99,,,0.00,weatherlink.com 1.10,2013-07-13 08:53:00,
2013-07-13 05:08:00,66.7,64.0,30.19,NE,51,0.0,-999.0,90,-99.99,,,0.00,weatherlink.com 1.10,2013-07-13 09:08:00,
2013-07-13 05:23:00,66.7,64.0,30.20,NE,51,0.0,-999.0,90,-99.99,,,0.00,weatherlink.com 1.10,2013-07-13 09:23:00,
2013-07-13 05:38:00,66.7,64.0,30.20,NE,51,0.0,-999.0,90,-99.99,,,0.00,weatherlink.com 1.10,2013-07-13 09:38:00,
2013-07-13 05:53:00,66.8,64.0,30.20,NE,51,0.0,-999.0,90,-99.99,,,0.00,weatherlink.com 1.10,2013-07-13 09:53:00,
2013-07-13 06:08:00,66.9,64.0,30.21,NE,51,0.0,-999.0,90,-99.99,,,0.00,weatherlink.com 1.10,2013-07-13 10:08:00,
2013-07-13 06:23:00,67.0,64.0,30.21,NE,51,0.0,-999.0,89,-99.99,,,0.00,weatherlink.com 1.10,2013-07-13 10:23:00,
2013-07-13 06:38:00,67.0,64.0,30.21,NE,51,0.0,-999.0,89,-99.99,,,0.00,weatherlink.com 1.10,2013-07-13 10:38:00,
2013-07-13 06:53:00,67.2,64.0,30.21,NE,51,0.0,-999.0,89,-99.99,,,0.00,weatherlink.com 1.10,2013-07-13 10:53:00,
2013-07-13 07:08:00,67.6,64.0,30.21,NE,51,0.0,-999.0,88,-99.99,,,0.00,weatherlink.com 1.10,2013-07-13 11:08:00,
2013-07-13 07:23:00,67.8,64.0,30.22,NE,52,0.0,-999.0,87,-99.99,,,0.00,weatherlink.com 1.10,2013-07-13 11:23:00,
2013-07-13 07:38:00,68.1,64.0,30.22,NE,52,0.0,-999.0,87,-99.99,,,0.00,weatherlink.com 1.10,2013-07-13 11:38:00,
2013-07-13 07:53:00,68.5,64.0,30.23,NE,52,0.0,-999.0,84,-99.99,,,0.00,weatherlink.com 1.10,2013-07-13 11:53:00,
2013-07-13 08:08:00,68.7,64.0,30.24,NE,52,0.0,-999.0,85,-99.99,,,0.00,weatherlink.com 1.10,2013-07-13 12:08:00,
2013-07-13 08:23:00,68.8,64.0,30.25,NE,52,0.0,-999.0,83,-99.99,,,0.00,weatherlink.com 1.10,2013-07-13 12:23:00,
2013-07-13 08:38:00,69.1,64.0,30.25,NE,52,0.0,-999.0,84,-99.99,,,0.00,weatherlink.com 1.10,2013-07-13 12:38:00,
2013-07-13 08:53:00,69.6,64.0,30.25,NE,51,0.0,-999.0,81,-99.99,,,0.00,weatherlink.com 1.10,2013-07-13 12:53:00,
2013-07-13 09:08:00,69.9,65.0,30.24,NE,51,0.0,-999.0,83,-99.99,,,0.00,weatherlink.com 1.10,2013-07-13 13:08:00,
2013-07-13 09:23:00,70.6,65.0,30.24,NE,51,0.0,-999.0,83,-99.99,,,0.00,weatherlink.com 1.10,2013-07-13 13:23:00,
2013-07-13 09:38:00,70.6,66.0,30.24,NE,51,0.0,-999.0,84,-99.99,,,0.00,weatherlink.com 1.10,2013-07-13 13:38:00,
2013-07-13 09:53:00,70.6,66.0,30.25,ENE,61,2.0,-999.0,85,-99.99,,,0.00,weatherlink.com 1.10,2013-07-13 13:53:00,
2013-07-13 10:08:00,71.1,67.0,30.24,ENE,61,0.0,-999.0,86,-99.99,,,0.00,weatherlink.com 1.10,2013-07-13 14:08:00,
2013-07-13 10:23:00,72.0,68.0,30.24,ENE,61,0.0,-999.0,86,-99.99,,,0.00,weatherlink.com 1.10,2013-07-13 14:23:00,
2013-07-13 10:38:00,72.4,67.0,30.25,ENE,61,0.0,-999.0,84,-99.99,,,0.00,weatherlink.com 1.10,2013-07-13 14:38:00,
2013-07-13 10:53:00,72.6,67.0,30.25,ENE,61,0.0,-999.0,83,-99.99,,,0.00,weatherlink.com 1.10,2013-07-13 14:53:00,
2013-07-13 11:08:00,72.5,67.0,30.26,ENE,61,0.0,-999.0,84,-99.99,,,0.00,weatherlink.com 1.10,2013-07-13 15:08:00,
2013-07-13 11:23:00,72.8,67.0,30.25,ENE,61,0.0,-999.0,83,-99.99,,,0.00,weatherlink.com 1.10,2013-07-13 15:23:00,
2013-07-13 11:38:00,73.1,68.0,30.26,ENE,65,0.0,-999.0,83,-99.99,,,0.00,weatherlink.com 1.10,2013-07-13 15:38:00,
2013-07-13 11:53:00,73.4,68.0,30.25,ENE,65,0.0,-999.0,83,-99.99,,,0.00,weatherlink.com 1.10,2013-07-13 15:53:00,
2013-07-13 12:08:00,73.7,69.0,30.25,ENE,64,0.0,-999.0,84,-99.99,,,0.00,weatherlink.com 1.10,2013-07-13 16:08:00,
2013-07-13 12:23:00,74.0,69.0,30.25,ENE,64,0.0,-999.0,84,-99.99,,,0.00,weatherlink.com 1.10,2013-07-13 16:23:00,
2013-07-13 12:38:00,74.1,68.0,30.26,ENE,64,0.0,-999.0,82,-99.99,,,0.00,weatherlink.com 1.10,2013-07-13 16:38:00,
2013-07-13 12:52:00,73.6,68.0,30.26,ENE,57,0.0,-999.0,82,-99.99,,,0.00,weatherlink.com 1.10,2013-07-13 16:52:00,
2013-07-13 13:07:00,73.6,68.0,30.26,ENE,59,0.0,-999.0,83,-99.99,,,0.00,weatherlink.com 1.10,2013-07-13 17:07:00,
2013-07-13 13:22:00,74.4,68.0,30.26,ENE,59,0.0,-999.0,81,-99.99,,,0.00,weatherlink.com 1.10,2013-07-13 17:22:00,
2013-07-13 13:37:00,74.7,69.0,30.26,ENE,59,0.0,-999.0,81,-99.99,,,0.00,weatherlink.com 1.10,2013-07-13 17:37:00,
2013-07-13 13:52:00,75.1,69.0,30.25,NE,55,0.0,-999.0,80,-99.99,,,0.00,weatherlink.com 1.10,2013-07-13 17:52:00,
2013-07-13 14:07:00,75.9,69.0,30.25,ENE,57,0.0,-999.0,79,-99.99,,,0.00,weatherlink.com 1.10,2013-07-13 18:07:00,
2013-07-13 14:22:00,77.2,70.0,30.25,NE,54,0.0,-999.0,77,-99.99,,,0.00,weatherlink.com 1.10,2013-07-13 18:22:00,
2013-07-13 14:37:00,78.8,70.0,30.25,ENE,63,0.0,-999.0,75,-99.99,,,0.00,weatherlink.com 1.10,2013-07-13 18:37:00,
2013-07-13 14:52:00,79.0,70.0,30.25,ENE,69,0.0,-999.0,73,-99.99,,,0.00,weatherlink.com 1.10,2013-07-13 18:52:00,
2013-07-13 15:07:00,78.7,71.0,30.25,ENE,69,0.0,-999.0,76,-99.99,,,0.00,weatherlink.com 1.10,2013-07-13 19:07:00,
2013-07-13 15:22:00,79.3,70.0,30.25,ENE,60,0.0,-999.0,74,-99.99,,,0.00,weatherlink.com 1.10,2013-07-13 19:22:00,
2013-07-13 15:37:00,78.6,70.0,30.25,ENE,61,0.0,-999.0,74,-99.99,,,0.00,weatherlink.com 1.10,2013-07-13 19:37:00,
2013-07-13 15:52:00,77.5,69.0,30.24,ENE,62,0.0,-999.0,76,-99.99,,,0.00,weatherlink.com 1.10,2013-07-13 19:52:00,
2013-07-13 16:07:00,76.9,69.0,30.24,ENE,78,0.0,-999.0,77,-99.99,,,0.00,weatherlink.com 1.10,2013-07-13 20:07:00,
2013-07-13 16:22:00,76.6,70.0,30.24,ENE,78,1.0,-999.0,79,-99.99,,,0.00,weatherlink.com 1.10,2013-07-13 20:22:00,
2013-07-13 16:37:00,77.1,70.0,30.24,ENE,71,0.0,-999.0,79,-99.99,,,0.00,weatherlink.com 1.10,2013-07-13 20:37:00,
2013-07-13 16:52:00,76.7,69.0,30.24,ENE,73,0.0,-999.0,78,-99.99,,,0.00,weatherlink.com 1.10,2013-07-13 20:52:00,
2013-07-13 17:07:00,76.3,69.0,30.23,ENE,72,0.0,-999.0,79,-99.99,,,0.00,weatherlink.com 1.10,2013-07-13 21:07:00,
2013-07-13 17:22:00,75.1,69.0,30.24,ENE,74,0.0,-999.0,80,-99.99,,,0.00,weatherlink.com 1.10,2013-07-13 21:22:00,
2013-07-13 17:37:00,74.1,69.0,30.24,ENE,74,0.0,-999.0,83,-99.99,,,0.00,weatherlink.com 1.10,2013-07-13 21:37:00,
2013-07-13 17:52:00,73.4,68.0,30.24,ENE,74,0.0,-999.0,84,-99.99,,,0.00,weatherlink.com 1.10,2013-07-13 21:52:00,
2013-07-13 18:07:00,72.7,68.0,30.24,ENE,74,0.0,-999.0,85,-99.99,,,0.00,weatherlink.com 1.10,2013-07-13 22:07:00,
2013-07-13 18:22:00,72.1,68.0,30.24,ENE,74,0.0,-999.0,87,-99.99,,,0.00,weatherlink.com 1.10,2013-07-13 22:22:00,
2013-07-13 18:37:00,71.6,68.0,30.24,ENE,74,0.0,-999.0,88,-99.99,,,0.00,weatherlink.com 1.10,2013-07-13 22:37:00,
2013-07-13 18:52:00,71.2,68.0,30.25,ENE,74,0.0,-999.0,89,-99.99,,,0.00,weatherlink.com 1.10,2013-07-13 22:52:00,
2013-07-13 19:07:00,71.1,68.0,30.25,ENE,74,0.0,-999.0,89,-99.99,,,0.00,weatherlink.com 1.10,2013-07-13 23:07:00,
2013-07-13 19:22:00,70.9,68.0,30.25,ENE,74,0.0,-999.0,89,-99.99,,,0.00,weatherlink.com 1.10,2013-07-13 23:22:00,
2013-07-13 19:37:00,70.8,68.0,30.25,ENE,74,0.0,-999.0,90,-99.99,,,0.00,weatherlink.com 1.10,2013-07-13 23:37:00,
2013-07-13 19:52:00,70.8,68.0,30.25,ENE,74,0.0,-999.0,90,-99.99,,,0.00,weatherlink.com 1.10,2013-07-13 23:52:00,
2013-07-13 20:07:00,70.8,68.0,30.25,ENE,74,0.0,-999.0,90,-99.99,,,0.00,weatherlink.com 1.10,2013-07-14 00:07:00,
2013-07-13 20:22:00,70.7,68.0,30.25,ENE,74,0.0,-999.0,90,-99.99,,,0.00,weatherlink.com 1.10,2013-07-14 00:22:00,
2013-07-13 20:37:00,70.4,68.0,30.25,ENE,74,0.0,-999.0,91,-99.99,,,0.00,weatherlink.com 1.10,2013-07-14 00:37:00,
2013-07-13 20:52:00,70.2,68.0,30.25,ENE,74,0.0,-999.0,92,-99.99,,,0.00,weatherlink.com 1.10,2013-07-14 00:52:00,
2013-07-13 21:07:00,70.0,68.0,30.25,ENE,74,0.0,-999.0,92,-99.99,,,0.00,weatherlink.com 1.10,2013-07-14 01:07:00,
2013-07-13 21:22:00,69.9,68.0,30.25,ENE,74,0.0,-999.0,93,-99.99,,,0.00,weatherlink.com 1.10,2013-07-14 01:22:00,
2013-07-13 21:37:00,69.7,68.0,30.25,ENE,74,0.0,-999.0,94,-99.99,,,0.00,weatherlink.com 1.10,2013-07-14 01:37:00,
2013-07-13 21:52:00,69.5,68.0,30.24,ENE,74,0.0,-999.0,94,-99.99,,,0.00,weatherlink.com 1.10,2013-07-14 01:52:00,
2013-07-13 22:07:00,69.2,68.0,30.24,ENE,74,0.0,-999.0,94,-99.99,,,0.00,weatherlink.com 1.10,2013-07-14 02:07:00,
2013-07-13 22:22:00,69.1,68.0,30.24,ENE,74,0.0,-999.0,95,-99.99,,,0.00,weatherlink.com 1.10,2013-07-14 02:22:00,
2013-07-13 22:37:00,68.9,68.0,30.24,ENE,74,0.0,-999.0,95,-99.99,,,0.00,weatherlink.com 1.10,2013-07-14 02:37:00,
2013-07-13 22:52:00,68.7,67.0,30.24,ENE,74,0.0,-999.0,95,-99.99,,,0.00,weatherlink.com 1.10,2013-07-14 02:52:00,
2013-07-13 23:07:00,68.6,67.0,30.25,ENE,74,0.0,-999.0,95,-99.99,,,0.00,weatherlink.com 1.10,2013-07-14 03:07:00,
2013-07-13 23:22:00,68.4,67.0,30.25,ENE,74,0.0,-999.0,96,-99.99,,,0.00,weatherlink.com 1.10,2013-07-14 03:22:00,
2013-07-13 23:37:00,68.3,67.0,30.25,ENE,74,0.0,-999.0,96,-99.99,,,0.00,weatherlink.com 1.10,2013-07-14 03:37:00,
2013-07-13 23:52:00,68.3,67.0,30.25,ENE,74,0.0,-999.0,96,-99.99,,,0.00,weatherlink.com 1.10,2013-07-14 03:52:00,